Albert J Ellis Airport
KOAJ : now visible

Airfield :











YOU CAN JOIN US ON...

 
LOGIN :

Register | Disclaimer

   EN    FR    IT 

 









Legend :    VFR   Marginal VFR   IFR   Intensive IFR   Very Intensive IFR
Visi :
Ceiling :
>= 8 km
>= 3000ft
5 to 8 km
1000 to 3000 ft
1500m to 5 km
500 to 1000 ft
800 to 1500m
200 to 500 ft
< 800m
< 200 ft
Symbols :   Thunderstorms  Fog  Heavy snow  Heavy precipitations  Wind > 20 kt






- Airport Elevation : 94 ft


KOAJ - Albert J Ellis

CURRENT METAR :
  • 010156Z AUTO 03014G18KT 10SM -RA BKN008 OVC100 09/08 A2956 RMK AO2 PK WND 07032/0137 WSHFT 0110 CIG 007V012 SLP013 P0008 T00940083

EXPIRED METARs :
  • 010141Z 04017G32KT 10SM -RA FEW008 BKN100 OVC110 09/08 A2955 RMK AO2 PK WND 07032/0137 WSHFT 0110 P0008
  • 010056Z 36007G16KT 9SM RA BKN008 BKN015 OVC025 09/08 A2965 RMK AO2 CIG 005V010 SLP042 P0027 T00890083
  • 312356Z 33008G15KT 8SM +RA BKN008 OVC048 09/08 A2967 RMK AO2 CIG 006V012 PRESRR SLP050 P0009 60020 T00940083 10172 20094 56012
  • 312345Z 02010KT 9SM RA BKN008 BKN048 OVC060 09/08 A2963 RMK AO2 CIG 006V012 P0006

TAF KOAJ
Valid from the 01 at 00:00 until the 02 at 00:00 UTC


312326Z 0100/0124 04010G18KT 6SM +SHRA OVC025
FM010200 04011G19KT 3SM +SHRA OVC007
FM010600 36012G19KT P6SM -SHRA OVC007
FM011100 34013G22KT P6SM OVC015
FM011900 34013G21KT P6SM SCT040 AMD LTD TO CLD VIS AND WIND



MET'MAP, your aeronautical weather chart ! - Copyright ORBIFLY December 2007 - Disclaimer

ORBIFLY MET'MAP TEAM :

Programming & Development : Alexandra Zaïnal
Concept & original design : Baudouin d'Aumeries
Assistance for programming : Marc-Olivier Méhu
Technical & hardware support : Manuel Goepfert

Contact : metmap@orbifly.com




SOURCES & CREDITS :

   NOAA       Earth
Advisory